sensor_id;sensor_type;location;lat;lon;timestamp;temperature;humidity
43015;DHT22;28637;50.554;7.032;2023-08-30T00:01:30;14.90;99.90
43015;DHT22;28637;50.554;7.032;2023-08-30T00:06:31;14.90;99.90
43015;DHT22;28637;50.554;7.032;2023-08-30T00:11:32;14.90;99.90
43015;DHT22;28637;50.554;7.032;2023-08-30T00:16:33;15.00;99.90
43015;DHT22;28637;50.554;7.032;2023-08-30T00:21:33;14.80;99.90
43015;DHT22;28637;50.554;7.032;2023-08-30T00:26:34;14.80;99.90
43015;DHT22;28637;50.554;7.032;2023-08-30T00:31:34;14.80;99.90
43015;DHT22;28637;50.554;7.032;2023-08-30T00:36:35;14.90;99.90
43015;DHT22;28637;50.554;7.032;2023-08-30T00:41:36;14.90;99.90
43015;DHT22;28637;50.554;7.032;2023-08-30T00:46:36;15.00;99.90
43015;DHT22;28637;50.554;7.032;2023-08-30T00:51:38;15.00;99.90
43015;DHT22;28637;50.554;7.032;2023-08-30T00:56:38;14.70;99.90
43015;DHT22;28637;50.554;7.032;2023-08-30T01:01:39;14.60;99.90
43015;DHT22;28637;50.554;7.032;2023-08-30T01:06:41;14.50;99.90
43015;DHT22;28637;50.554;7.032;2023-08-30T01:12:43;14.30;99.90
43015;DHT22;28637;50.554;7.032;2023-08-30T01:17:12;14.40;99.90
43015;DHT22;28637;50.554;7.032;2023-08-30T01:22:17;14.40;99.90
43015;DHT22;28637;50.554;7.032;2023-08-30T01:27:19;14.20;99.90
43015;DHT22;28637;50.554;7.032;2023-08-30T01:32:20;14.00;99.90
43015;DHT22;28637;50.554;7.032;2023-08-30T01:37:25;14.10;99.90
43015;DHT22;28637;50.554;7.032;2023-08-30T01:42:27;14.30;99.90
43015;DHT22;28637;50.554;7.032;2023-08-30T01:47:28;14.40;99.90
43015;DHT22;28637;50.554;7.032;2023-08-30T01:52:29;14.40;99.90
43015;DHT22;28637;50.554;7.032;2023-08-30T01:57:30;14.40;99.90
43015;DHT22;28637;50.554;7.032;2023-08-30T02:02:32;14.50;99.90
43015;DHT22;28637;50.554;7.032;2023-08-30T02:12:53;14.50;99.90
43015;DHT22;28637;50.554;7.032;2023-08-30T02:17:54;14.50;99.90
43015;DHT22;28637;50.554;7.032;2023-08-30T02:22:59;14.50;99.90
43015;DHT22;28637;50.554;7.032;2023-08-30T02:28:00;14.50;99.90
43015;DHT22;28637;50.554;7.032;2023-08-30T02:33:00;14.50;99.90
43015;DHT22;28637;50.554;7.032;2023-08-30T02:38:01;14.50;99.90
43015;DHT22;28637;50.554;7.032;2023-08-30T02:43:05;14.60;99.90
43015;DHT22;28637;50.554;7.032;2023-08-30T02:48:05;14.60;99.90
43015;DHT22;28637;50.554;7.032;2023-08-30T02:53:06;14.60;99.90
43015;DHT22;28637;50.554;7.032;2023-08-30T02:58:08;14.60;99.90
43015;DHT22;28637;50.554;7.032;2023-08-30T03:03:09;14.50;99.90
43015;DHT22;28637;50.554;7.032;2023-08-30T03:08:09;14.40;99.90
43015;DHT22;28637;50.554;7.032;2023-08-30T03:13:10;14.40;99.90
43015;DHT22;28637;50.554;7.032;2023-08-30T03:18:10;14.30;99.90
43015;DHT22;28637;50.554;7.032;2023-08-30T03:23:11;14.30;99.90
43015;DHT22;28637;50.554;7.032;2023-08-30T03:28:11;14.10;99.90
43015;DHT22;28637;50.554;7.032;2023-08-30T03:33:12;14.10;99.90
43015;DHT22;28637;50.554;7.032;2023-08-30T03:38:13;14.00;99.90
43015;DHT22;28637;50.554;7.032;2023-08-30T03:43:14;13.90;99.90
43015;DHT22;28637;50.554;7.032;2023-08-30T03:48:14;13.70;99.90
43015;DHT22;28637;50.554;7.032;2023-08-30T03:53:15;13.50;99.90
43015;DHT22;28637;50.554;7.032;2023-08-30T03:58:16;13.30;99.90
43015;DHT22;28637;50.554;7.032;2023-08-30T04:03:16;13.30;99.90
43015;DHT22;28637;50.554;7.032;2023-08-30T04:08:17;13.30;99.90
43015;DHT22;28637;50.554;7.032;2023-08-30T04:13:17;13.10;99.90
43015;DHT22;28637;50.554;7.032;2023-08-30T04:18:18;13.00;99.90
43015;DHT22;28637;50.554;7.032;2023-08-30T04:23:18;12.90;99.90
43015;DHT22;28637;50.554;7.032;2023-08-30T04:28:19;12.90;99.90
43015;DHT22;28637;50.554;7.032;2023-08-30T04:33:19;12.90;99.90
43015;DHT22;28637;50.554;7.032;2023-08-30T04:38:20;13.00;99.90
43015;DHT22;28637;50.554;7.032;2023-08-30T04:43:21;12.90;99.90
43015;DHT22;28637;50.554;7.032;2023-08-30T04:48:21;12.90;99.90
43015;DHT22;28637;50.554;7.032;2023-08-30T04:53:22;12.90;99.90
43015;DHT22;28637;50.554;7.032;2023-08-30T04:58:22;12.90;99.90
43015;DHT22;28637;50.554;7.032;2023-08-30T05:03:23;12.70;99.90
43015;DHT22;28637;50.554;7.032;2023-08-30T05:08:24;12.60;99.90
43015;DHT22;28637;50.554;7.032;2023-08-30T05:13:24;12.60;99.90
43015;DHT22;28637;50.554;7.032;2023-08-30T05:18:25;12.70;99.90
43015;DHT22;28637;50.554;7.032;2023-08-30T05:23:25;12.70;99.90
43015;DHT22;28637;50.554;7.032;2023-08-30T05:28:26;12.80;99.90
43015;DHT22;28637;50.554;7.032;2023-08-30T05:33:26;12.80;99.90
43015;DHT22;28637;50.554;7.032;2023-08-30T05:38:27;12.80;99.90
43015;DHT22;28637;50.554;7.032;2023-08-30T05:43:27;12.70;99.90
43015;DHT22;28637;50.554;7.032;2023-08-30T05:48:28;12.80;99.90
43015;DHT22;28637;50.554;7.032;2023-08-30T05:53:29;12.90;99.90
43015;DHT22;28637;50.554;7.032;2023-08-30T05:58:30;12.80;99.90
43015;DHT22;28637;50.554;7.032;2023-08-30T06:03:30;12.80;99.90
43015;DHT22;28637;50.554;7.032;2023-08-30T06:08:31;12.60;99.90
43015;DHT22;28637;50.554;7.032;2023-08-30T06:13:31;12.60;99.90
43015;DHT22;28637;50.554;7.032;2023-08-30T06:18:32;12.60;99.90
43015;DHT22;28637;50.554;7.032;2023-08-30T06:23:33;12.60;99.90
43015;DHT22;28637;50.554;7.032;2023-08-30T06:28:33;12.80;99.90
43015;DHT22;28637;50.554;7.032;2023-08-30T06:33:34;13.10;99.90
43015;DHT22;28637;50.554;7.032;2023-08-30T06:38:36;13.40;99.90
43015;DHT22;28637;50.554;7.032;2023-08-30T06:43:37;13.50;99.90
43015;DHT22;28637;50.554;7.032;2023-08-30T06:48:37;13.60;99.90
43015;DHT22;28637;50.554;7.032;2023-08-30T06:53:38;13.80;99.90
43015;DHT22;28637;50.554;7.032;2023-08-30T06:58:38;13.70;99.90
43015;DHT22;28637;50.554;7.032;2023-08-30T07:03:39;13.50;99.90
43015;DHT22;28637;50.554;7.032;2023-08-30T07:08:40;13.60;99.90
43015;DHT22;28637;50.554;7.032;2023-08-30T07:13:41;13.80;99.90
43015;DHT22;28637;50.554;7.032;2023-08-30T07:18:41;14.10;99.90
43015;DHT22;28637;50.554;7.032;2023-08-30T07:23:42;14.30;99.90
43015;DHT22;28637;50.554;7.032;2023-08-30T07:28:42;14.40;99.90
43015;DHT22;28637;50.554;7.032;2023-08-30T07:33:43;14.40;99.90
43015;DHT22;28637;50.554;7.032;2023-08-30T07:38:43;14.80;99.90
43015;DHT22;28637;50.554;7.032;2023-08-30T07:43:44;15.20;99.90
43015;DHT22;28637;50.554;7.032;2023-08-30T07:48:44;15.40;99.90
43015;DHT22;28637;50.554;7.032;2023-08-30T07:53:45;15.60;99.90
43015;DHT22;28637;50.554;7.032;2023-08-30T07:58:45;15.80;99.90
43015;DHT22;28637;50.554;7.032;2023-08-30T08:03:46;15.90;99.90
43015;DHT22;28637;50.554;7.032;2023-08-30T08:08:47;16.20;99.90
43015;DHT22;28637;50.554;7.032;2023-08-30T08:13:47;16.40;99.90
43015;DHT22;28637;50.554;7.032;2023-08-30T08:18:48;16.80;99.90
43015;DHT22;28637;50.554;7.032;2023-08-30T08:23:49;17.00;99.90
43015;DHT22;28637;50.554;7.032;2023-08-30T08:28:50;17.20;99.90
43015;DHT22;28637;50.554;7.032;2023-08-30T08:33:51;17.30;99.90
43015;DHT22;28637;50.554;7.032;2023-08-30T08:38:52;17.70;99.90
43015;DHT22;28637;50.554;7.032;2023-08-30T08:43:52;17.80;99.90
43015;DHT22;28637;50.554;7.032;2023-08-30T08:48:53;17.90;99.90
43015;DHT22;28637;50.554;7.032;2023-08-30T08:53:55;18.10;99.90
43015;DHT22;28637;50.554;7.032;2023-08-30T08:59:00;18.00;99.90
43015;DHT22;28637;50.554;7.032;2023-08-30T09:04:10;18.00;99.90
43015;DHT22;28637;50.554;7.032;2023-08-30T09:09:11;17.90;99.90
43015;DHT22;28637;50.554;7.032;2023-08-30T09:14:12;18.20;99.90
43015;DHT22;28637;50.554;7.032;2023-08-30T09:19:12;18.20;99.90
43015;DHT22;28637;50.554;7.032;2023-08-30T09:24:13;18.50;99.90
43015;DHT22;28637;50.554;7.032;2023-08-30T09:29:14;18.80;99.90
43015;DHT22;28637;50.554;7.032;2023-08-30T09:34:16;19.20;99.90
43015;DHT22;28637;50.554;7.032;2023-08-30T09:39:17;19.40;99.90
43015;DHT22;28637;50.554;7.032;2023-08-30T09:44:18;19.50;99.90
43015;DHT22;28637;50.554;7.032;2023-08-30T09:49:23;19.50;99.90
43015;DHT22;28637;50.554;7.032;2023-08-30T09:54:24;19.50;99.90
43015;DHT22;28637;50.554;7.032;2023-08-30T09:59:25;19.30;99.90
43015;DHT22;28637;50.554;7.032;2023-08-30T10:04:25;19.40;99.90
43015;DHT22;28637;50.554;7.032;2023-08-30T10:09:26;19.50;99.90
43015;DHT22;28637;50.554;7.032;2023-08-30T10:14:28;19.60;99.90
43015;DHT22;28637;50.554;7.032;2023-08-30T10:19:29;19.60;99.90
43015;DHT22;28637;50.554;7.032;2023-08-30T10:25:14;19.40;99.90
43015;DHT22;28637;50.554;7.032;2023-08-30T10:29:55;19.40;99.90
43015;DHT22;28637;50.554;7.032;2023-08-30T10:34:56;19.50;99.90
43015;DHT22;28637;50.554;7.032;2023-08-30T10:40:00;19.50;99.90
43015;DHT22;28637;50.554;7.032;2023-08-30T10:45:06;19.40;99.90
43015;DHT22;28637;50.554;7.032;2023-08-30T10:50:08;19.50;99.90
43015;DHT22;28637;50.554;7.032;2023-08-30T10:55:10;19.60;99.90
43015;DHT22;28637;50.554;7.032;2023-08-30T11:05:17;20.00;99.90
43015;DHT22;28637;50.554;7.032;2023-08-30T11:10:18;20.00;99.90
43015;DHT22;28637;50.554;7.032;2023-08-30T11:15:19;19.90;99.90
43015;DHT22;28637;50.554;7.032;2023-08-30T11:20:22;20.00;99.90
43015;DHT22;28637;50.554;7.032;2023-08-30T11:25:22;20.40;99.90
43015;DHT22;28637;50.554;7.032;2023-08-30T11:30:23;20.60;99.90
43015;DHT22;28637;50.554;7.032;2023-08-30T11:35:25;20.80;99.90
43015;DHT22;28637;50.554;7.032;2023-08-30T11:40:26;20.60;99.90
43015;DHT22;28637;50.554;7.032;2023-08-30T11:45:27;20.40;99.90
43015;DHT22;28637;50.554;7.032;2023-08-30T11:50:28;19.80;99.90
43015;DHT22;28637;50.554;7.032;2023-08-30T11:55:29;20.30;99.90
43015;DHT22;28637;50.554;7.032;2023-08-30T12:00:32;20.20;99.90
43015;DHT22;28637;50.554;7.032;2023-08-30T12:05:33;20.10;99.90
43015;DHT22;28637;50.554;7.032;2023-08-30T12:10:35;20.40;99.90
43015;DHT22;28637;50.554;7.032;2023-08-30T12:15:38;21.00;99.90
43015;DHT22;28637;50.554;7.032;2023-08-30T12:20:39;20.90;99.90
43015;DHT22;28637;50.554;7.032;2023-08-30T12:25:40;20.40;99.90
43015;DHT22;28637;50.554;7.032;2023-08-30T12:30:40;20.00;99.90
43015;DHT22;28637;50.554;7.032;2023-08-30T12:35:41;19.30;99.90
43015;DHT22;28637;50.554;7.032;2023-08-30T12:40:41;19.50;99.90
43015;DHT22;28637;50.554;7.032;2023-08-30T12:45:42;19.70;99.90
43015;DHT22;28637;50.554;7.032;2023-08-30T12:50:44;19.50;99.90
43015;DHT22;28637;50.554;7.032;2023-08-30T12:55:45;19.10;99.90
43015;DHT22;28637;50.554;7.032;2023-08-30T13:00:45;19.20;99.90
43015;DHT22;28637;50.554;7.032;2023-08-30T13:05:46;18.90;99.90
43015;DHT22;28637;50.554;7.032;2023-08-30T13:10:47;18.90;99.90
43015;DHT22;28637;50.554;7.032;2023-08-30T13:15:47;18.70;99.90
43015;DHT22;28637;50.554;7.032;2023-08-30T13:20:48;18.40;99.90
43015;DHT22;28637;50.554;7.032;2023-08-30T13:25:49;18.10;99.90
43015;DHT22;28637;50.554;7.032;2023-08-30T13:30:49;17.50;99.90
43015;DHT22;28637;50.554;7.032;2023-08-30T13:35:52;17.10;99.90
43015;DHT22;28637;50.554;7.032;2023-08-30T13:41:00;17.00;99.90
43015;DHT22;28637;50.554;7.032;2023-08-30T13:46:00;17.10;99.90
43015;DHT22;28637;50.554;7.032;2023-08-30T13:51:01;17.20;99.90
43015;DHT22;28637;50.554;7.032;2023-08-30T13:56:01;17.10;99.90
43015;DHT22;28637;50.554;7.032;2023-08-30T14:01:02;17.20;99.90
43015;DHT22;28637;50.554;7.032;2023-08-30T14:06:03;17.20;99.90
43015;DHT22;28637;50.554;7.032;2023-08-30T14:11:04;17.20;99.90
43015;DHT22;28637;50.554;7.032;2023-08-30T14:16:04;17.30;99.90
43015;DHT22;28637;50.554;7.032;2023-08-30T14:21:05;17.40;99.90
43015;DHT22;28637;50.554;7.032;2023-08-30T14:26:06;17.30;99.90
43015;DHT22;28637;50.554;7.032;2023-08-30T14:31:10;17.10;99.90
43015;DHT22;28637;50.554;7.032;2023-08-30T14:36:11;17.20;99.90
43015;DHT22;28637;50.554;7.032;2023-08-30T14:41:11;17.20;99.90
43015;DHT22;28637;50.554;7.032;2023-08-30T14:46:13;17.20;99.90
43015;DHT22;28637;50.554;7.032;2023-08-30T14:51:16;17.00;99.90
43015;DHT22;28637;50.554;7.032;2023-08-30T14:56:16;16.90;99.90
43015;DHT22;28637;50.554;7.032;2023-08-30T15:01:18;16.40;99.90
43015;DHT22;28637;50.554;7.032;2023-08-30T15:06:18;15.70;99.90
43015;DHT22;28637;50.554;7.032;2023-08-30T15:11:19;15.50;99.90
43015;DHT22;28637;50.554;7.032;2023-08-30T15:16:20;15.30;99.90
43015;DHT22;28637;50.554;7.032;2023-08-30T15:21:20;15.40;99.90
43015;DHT22;28637;50.554;7.032;2023-08-30T15:26:21;15.50;99.90
43015;DHT22;28637;50.554;7.032;2023-08-30T15:31:21;15.90;99.90
43015;DHT22;28637;50.554;7.032;2023-08-30T15:36:22;16.10;99.90
43015;DHT22;28637;50.554;7.032;2023-08-30T15:41:23;16.30;99.90
43015;DHT22;28637;50.554;7.032;2023-08-30T15:46:23;16.80;99.90
43015;DHT22;28637;50.554;7.032;2023-08-30T15:51:24;17.40;99.90
43015;DHT22;28637;50.554;7.032;2023-08-30T15:56:24;18.00;99.90
43015;DHT22;28637;50.554;7.032;2023-08-30T16:01:25;18.90;99.90
43015;DHT22;28637;50.554;7.032;2023-08-30T16:06:26;19.40;99.90
43015;DHT22;28637;50.554;7.032;2023-08-30T16:11:26;19.70;99.90
43015;DHT22;28637;50.554;7.032;2023-08-30T16:16:27;19.50;99.90
43015;DHT22;28637;50.554;7.032;2023-08-30T16:21:27;19.10;99.90
43015;DHT22;28637;50.554;7.032;2023-08-30T16:26:28;18.70;99.90
43015;DHT22;28637;50.554;7.032;2023-08-30T16:31:29;18.00;99.90
43015;DHT22;28637;50.554;7.032;2023-08-30T16:36:29;17.70;99.90
43015;DHT22;28637;50.554;7.032;2023-08-30T16:41:30;17.40;99.90
43015;DHT22;28637;50.554;7.032;2023-08-30T16:46:31;17.20;99.90
43015;DHT22;28637;50.554;7.032;2023-08-30T16:51:34;16.70;99.90
43015;DHT22;28637;50.554;7.032;2023-08-30T16:56:34;16.50;99.90
43015;DHT22;28637;50.554;7.032;2023-08-30T17:01:35;16.40;99.90
43015;DHT22;28637;50.554;7.032;2023-08-30T17:06:35;16.20;99.90
43015;DHT22;28637;50.554;7.032;2023-08-30T17:11:36;16.00;99.90
43015;DHT22;28637;50.554;7.032;2023-08-30T17:16:38;16.10;99.90
43015;DHT22;28637;50.554;7.032;2023-08-30T17:21:39;16.20;99.90
43015;DHT22;28637;50.554;7.032;2023-08-30T17:26:39;16.40;99.90
43015;DHT22;28637;50.554;7.032;2023-08-30T17:31:40;16.50;99.90
43015;DHT22;28637;50.554;7.032;2023-08-30T17:36:41;16.50;99.90
43015;DHT22;28637;50.554;7.032;2023-08-30T17:41:47;16.20;99.90
43015;DHT22;28637;50.554;7.032;2023-08-30T17:46:48;15.90;99.90
43015;DHT22;28637;50.554;7.032;2023-08-30T17:51:49;15.60;99.90
43015;DHT22;28637;50.554;7.032;2023-08-30T17:56:50;15.60;99.90
43015;DHT22;28637;50.554;7.032;2023-08-30T18:01:52;15.50;99.90
43015;DHT22;28637;50.554;7.032;2023-08-30T18:06:53;15.60;99.90
43015;DHT22;28637;50.554;7.032;2023-08-30T18:11:54;15.50;99.90
43015;DHT22;28637;50.554;7.032;2023-08-30T18:16:55;15.50;99.90
43015;DHT22;28637;50.554;7.032;2023-08-30T18:21:56;15.50;99.90
43015;DHT22;28637;50.554;7.032;2023-08-30T18:26:57;15.30;99.90
43015;DHT22;28637;50.554;7.032;2023-08-30T18:31:58;15.10;99.90
43015;DHT22;28637;50.554;7.032;2023-08-30T18:36:58;14.80;99.90
43015;DHT22;28637;50.554;7.032;2023-08-30T18:42:01;14.80;99.90
43015;DHT22;28637;50.554;7.032;2023-08-30T18:47:01;14.70;99.90
43015;DHT22;28637;50.554;7.032;2023-08-30T18:55:07;14.60;99.90
43015;DHT22;28637;50.554;7.032;2023-08-30T19:00:08;14.70;99.90
43015;DHT22;28637;50.554;7.032;2023-08-30T19:05:10;14.80;99.90
43015;DHT22;28637;50.554;7.032;2023-08-30T19:10:11;14.80;99.90
43015;DHT22;28637;50.554;7.032;2023-08-30T19:15:11;14.80;99.90
43015;DHT22;28637;50.554;7.032;2023-08-30T19:20:13;14.90;99.90
43015;DHT22;28637;50.554;7.032;2023-08-30T19:25:20;14.90;99.90
43015;DHT22;28637;50.554;7.032;2023-08-30T19:30:28;14.70;99.90
43015;DHT22;28637;50.554;7.032;2023-08-30T19:35:34;14.60;99.90
43015;DHT22;28637;50.554;7.032;2023-08-30T19:40:57;14.60;99.90
43015;DHT22;28637;50.554;7.032;2023-08-30T19:46:14;14.50;99.90
43015;DHT22;28637;50.554;7.032;2023-08-30T19:51:21;14.40;99.90
43015;DHT22;28637;50.554;7.032;2023-08-30T19:56:27;14.50;99.90
43015;DHT22;28637;50.554;7.032;2023-08-30T20:01:32;14.40;99.90
43015;DHT22;28637;50.554;7.032;2023-08-30T20:06:36;14.20;99.90
43015;DHT22;28637;50.554;7.032;2023-08-30T20:11:43;14.00;99.90
43015;DHT22;28637;50.554;7.032;2023-08-30T20:16:49;13.80;99.90
43015;DHT22;28637;50.554;7.032;2023-08-30T20:21:49;13.70;99.90
43015;DHT22;28637;50.554;7.032;2023-08-30T20:26:50;13.60;99.90
43015;DHT22;28637;50.554;7.032;2023-08-30T20:31:50;13.40;99.90
43015;DHT22;28637;50.554;7.032;2023-08-30T20:36:51;13.30;99.90
43015;DHT22;28637;50.554;7.032;2023-08-30T20:41:51;13.20;99.90
43015;DHT22;28637;50.554;7.032;2023-08-30T20:46:54;13.10;99.90
43015;DHT22;28637;50.554;7.032;2023-08-30T20:51:55;13.00;99.90
43015;DHT22;28637;50.554;7.032;2023-08-30T20:56:55;13.00;99.90
43015;DHT22;28637;50.554;7.032;2023-08-30T21:01:56;12.90;99.90
43015;DHT22;28637;50.554;7.032;2023-08-30T21:06:57;12.90;99.90
43015;DHT22;28637;50.554;7.032;2023-08-30T21:11:58;12.80;99.90
43015;DHT22;28637;50.554;7.032;2023-08-30T21:16:58;12.70;99.90
43015;DHT22;28637;50.554;7.032;2023-08-30T21:21:59;12.60;99.90
43015;DHT22;28637;50.554;7.032;2023-08-30T21:26:59;12.70;99.90
43015;DHT22;28637;50.554;7.032;2023-08-30T21:32:00;12.60;99.90
43015;DHT22;28637;50.554;7.032;2023-08-30T21:37:00;12.50;99.90
43015;DHT22;28637;50.554;7.032;2023-08-30T21:42:02;12.50;99.90
43015;DHT22;28637;50.554;7.032;2023-08-30T21:47:02;12.60;99.90
43015;DHT22;28637;50.554;7.032;2023-08-30T21:52:04;12.60;99.90
43015;DHT22;28637;50.554;7.032;2023-08-30T21:57:04;12.60;99.90
43015;DHT22;28637;50.554;7.032;2023-08-30T22:02:05;12.60;99.90
43015;DHT22;28637;50.554;7.032;2023-08-30T22:07:06;12.60;99.90
43015;DHT22;28637;50.554;7.032;2023-08-30T22:12:07;12.60;99.90
43015;DHT22;28637;50.554;7.032;2023-08-30T22:17:08;12.60;99.90
43015;DHT22;28637;50.554;7.032;2023-08-30T22:22:08;12.70;99.90
43015;DHT22;28637;50.554;7.032;2023-08-30T22:27:09;12.70;99.90
43015;DHT22;28637;50.554;7.032;2023-08-30T22:32:09;12.60;99.90
43015;DHT22;28637;50.554;7.032;2023-08-30T22:37:10;12.60;99.90
43015;DHT22;28637;50.554;7.032;2023-08-30T22:42:10;12.70;99.90
43015;DHT22;28637;50.554;7.032;2023-08-30T22:47:11;12.80;99.90
43015;DHT22;28637;50.554;7.032;2023-08-30T22:52:12;12.60;99.90
43015;DHT22;28637;50.554;7.032;2023-08-30T22:57:13;12.60;99.90
43015;DHT22;28637;50.554;7.032;2023-08-30T23:02:13;12.80;99.90
43015;DHT22;28637;50.554;7.032;2023-08-30T23:07:14;12.80;99.90
43015;DHT22;28637;50.554;7.032;2023-08-30T23:12:14;12.50;99.90
43015;DHT22;28637;50.554;7.032;2023-08-30T23:17:15;12.20;99.90
43015;DHT22;28637;50.554;7.032;2023-08-30T23:22:17;12.10;99.90
43015;DHT22;28637;50.554;7.032;2023-08-30T23:27:17;12.20;99.90
43015;DHT22;28637;50.554;7.032;2023-08-30T23:32:18;12.20;99.90
43015;DHT22;28637;50.554;7.032;2023-08-30T23:37:18;12.30;99.90
43015;DHT22;28637;50.554;7.032;2023-08-30T23:42:19;12.40;99.90
43015;DHT22;28637;50.554;7.032;2023-08-30T23:47:19;12.60;99.90
43015;DHT22;28637;50.554;7.032;2023-08-30T23:52:20;12.60;99.90
43015;DHT22;28637;50.554;7.032;2023-08-30T23:57:20;12.60;99.90
